sensor_id;sensor_type;location;lat;lon;timestamp;P1;durP1;ratioP1;P2;durP2;ratioP2
12593;SDS011;6362;50.208;9.182;2023-01-31T00:00:01;11.25;;;3.28;;
12593;SDS011;6362;50.208;9.182;2023-01-31T00:02:27;16.52;;;3.92;;
12593;SDS011;6362;50.208;9.182;2023-01-31T00:04:55;15.32;;;3.15;;
12593;SDS011;6362;50.208;9.182;2023-01-31T00:07:20;12.27;;;2.80;;
12593;SDS011;6362;50.208;9.182;2023-01-31T00:09:45;17.60;;;3.78;;
12593;SDS011;6362;50.208;9.182;2023-01-31T00:12:11;12.70;;;2.42;;
12593;SDS011;6362;50.208;9.182;2023-01-31T00:14:36;13.82;;;2.63;;
12593;SDS011;6362;50.208;9.182;2023-01-31T00:17:02;15.07;;;3.90;;
12593;SDS011;6362;50.208;9.182;2023-01-31T00:19:27;10.48;;;2.95;;
12593;SDS011;6362;50.208;9.182;2023-01-31T00:21:52;16.85;;;3.90;;
12593;SDS011;6362;50.208;9.182;2023-01-31T00:24:18;11.10;;;2.35;;
12593;SDS011;6362;50.208;9.182;2023-01-31T00:26:43;13.73;;;2.78;;
12593;SDS011;6362;50.208;9.182;2023-01-31T00:29:09;10.38;;;2.30;;
12593;SDS011;6362;50.208;9.182;2023-01-31T00:31:35;12.07;;;2.30;;
12593;SDS011;6362;50.208;9.182;2023-01-31T00:34:00;13.52;;;2.47;;
12593;SDS011;6362;50.208;9.182;2023-01-31T00:36:27;15.80;;;3.42;;
12593;SDS011;6362;50.208;9.182;2023-01-31T00:38:54;14.73;;;2.90;;
12593;SDS011;6362;50.208;9.182;2023-01-31T00:41:22;17.27;;;3.25;;
12593;SDS011;6362;50.208;9.182;2023-01-31T00:43:48;10.00;;;3.53;;
12593;SDS011;6362;50.208;9.182;2023-01-31T00:46:14;17.15;;;3.00;;
12593;SDS011;6362;50.208;9.182;2023-01-31T00:48:40;13.93;;;3.03;;
12593;SDS011;6362;50.208;9.182;2023-01-31T00:51:06;16.98;;;2.92;;
12593;SDS011;6362;50.208;9.182;2023-01-31T00:53:31;10.55;;;2.90;;
12593;SDS011;6362;50.208;9.182;2023-01-31T00:56:02;14.73;;;2.90;;
12593;SDS011;6362;50.208;9.182;2023-01-31T00:58:37;14.82;;;3.30;;
12593;SDS011;6362;50.208;9.182;2023-01-31T01:01:06;10.90;;;2.97;;
12593;SDS011;6362;50.208;9.182;2023-01-31T01:03:33;11.85;;;2.65;;
12593;SDS011;6362;50.208;9.182;2023-01-31T01:05:59;12.70;;;2.55;;
12593;SDS011;6362;50.208;9.182;2023-01-31T01:08:24;13.57;;;2.35;;
12593;SDS011;6362;50.208;9.182;2023-01-31T01:10:50;15.13;;;2.80;;
12593;SDS011;6362;50.208;9.182;2023-01-31T01:13:15;14.50;;;2.65;;
12593;SDS011;6362;50.208;9.182;2023-01-31T01:15:41;19.15;;;3.70;;
12593;SDS011;6362;50.208;9.182;2023-01-31T01:18:06;12.13;;;2.50;;
12593;SDS011;6362;50.208;9.182;2023-01-31T01:20:33;11.23;;;3.35;;
12593;SDS011;6362;50.208;9.182;2023-01-31T01:22:59;14.20;;;3.20;;
12593;SDS011;6362;50.208;9.182;2023-01-31T01:25:24;10.68;;;2.58;;
12593;SDS011;6362;50.208;9.182;2023-01-31T01:27:50;15.55;;;3.17;;
12593;SDS011;6362;50.208;9.182;2023-01-31T01:30:15;14.82;;;3.63;;
12593;SDS011;6362;50.208;9.182;2023-01-31T01:32:41;11.52;;;2.67;;
12593;SDS011;6362;50.208;9.182;2023-01-31T01:35:06;10.73;;;2.10;;
12593;SDS011;6362;50.208;9.182;2023-01-31T01:37:34;15.65;;;2.97;;
12593;SDS011;6362;50.208;9.182;2023-01-31T01:39:59;8.15;;;2.60;;
12593;SDS011;6362;50.208;9.182;2023-01-31T01:42:25;10.25;;;2.47;;
12593;SDS011;6362;50.208;9.182;2023-01-31T01:44:52;13.73;;;2.78;;
12593;SDS011;6362;50.208;9.182;2023-01-31T01:52:30;14.02;;;3.78;;
12593;SDS011;6362;50.208;9.182;2023-01-31T01:55:10;13.55;;;3.55;;
12593;SDS011;6362;50.208;9.182;2023-01-31T01:57:55;13.07;;;3.10;;
12593;SDS011;6362;50.208;9.182;2023-01-31T02:00:28;9.13;;;2.93;;
12593;SDS011;6362;50.208;9.182;2023-01-31T02:02:56;9.57;;;2.13;;
12593;SDS011;6362;50.208;9.182;2023-01-31T02:05:35;16.30;;;3.35;;
12593;SDS011;6362;50.208;9.182;2023-01-31T02:08:04;10.90;;;2.55;;
12593;SDS011;6362;50.208;9.182;2023-01-31T02:10:36;15.48;;;3.17;;
12593;SDS011;6362;50.208;9.182;2023-01-31T02:13:08;13.73;;;3.13;;
12593;SDS011;6362;50.208;9.182;2023-01-31T02:15:35;9.63;;;3.25;;
12593;SDS011;6362;50.208;9.182;2023-01-31T02:18:01;17.85;;;3.08;;
12593;SDS011;6362;50.208;9.182;2023-01-31T02:31:35;18.40;;;3.08;;
12593;SDS011;6362;50.208;9.182;2023-01-31T02:37:15;9.68;;;2.75;;
12593;SDS011;6362;50.208;9.182;2023-01-31T02:48:14;10.75;;;2.55;;
12593;SDS011;6362;50.208;9.182;2023-01-31T02:50:56;16.15;;;3.42;;
12593;SDS011;6362;50.208;9.182;2023-01-31T02:53:36;16.20;;;4.05;;
12593;SDS011;6362;50.208;9.182;2023-01-31T02:58:49;10.65;;;2.45;;
12593;SDS011;6362;50.208;9.182;2023-01-31T03:01:23;12.05;;;3.28;;
12593;SDS011;6362;50.208;9.182;2023-01-31T03:03:57;10.50;;;2.72;;
12593;SDS011;6362;50.208;9.182;2023-01-31T03:08:52;11.93;;;2.40;;
12593;SDS011;6362;50.208;9.182;2023-01-31T03:11:24;11.50;;;2.40;;
12593;SDS011;6362;50.208;9.182;2023-01-31T03:14:08;9.70;;;2.90;;
12593;SDS011;6362;50.208;9.182;2023-01-31T03:16:55;15.60;;;3.13;;
12593;SDS011;6362;50.208;9.182;2023-01-31T03:19:49;15.35;;;2.10;;
12593;SDS011;6362;50.208;9.182;2023-01-31T03:22:22;11.00;;;2.67;;
12593;SDS011;6362;50.208;9.182;2023-01-31T03:24:51;13.55;;;3.08;;
12593;SDS011;6362;50.208;9.182;2023-01-31T03:27:18;13.57;;;3.00;;
12593;SDS011;6362;50.208;9.182;2023-01-31T03:29:45;12.75;;;2.85;;
12593;SDS011;6362;50.208;9.182;2023-01-31T03:32:32;14.13;;;3.35;;
12593;SDS011;6362;50.208;9.182;2023-01-31T03:35:07;7.95;;;2.60;;
12593;SDS011;6362;50.208;9.182;2023-01-31T03:43:11;15.18;;;2.70;;
12593;SDS011;6362;50.208;9.182;2023-01-31T03:45:43;12.43;;;2.60;;
12593;SDS011;6362;50.208;9.182;2023-01-31T03:48:13;16.88;;;3.38;;
12593;SDS011;6362;50.208;9.182;2023-01-31T03:50:52;9.63;;;2.85;;
12593;SDS011;6362;50.208;9.182;2023-01-31T03:56:23;13.75;;;2.70;;
12593;SDS011;6362;50.208;9.182;2023-01-31T03:59:00;12.45;;;2.65;;
12593;SDS011;6362;50.208;9.182;2023-01-31T04:01:31;8.95;;;2.67;;
12593;SDS011;6362;50.208;9.182;2023-01-31T04:04:04;17.67;;;2.65;;
12593;SDS011;6362;50.208;9.182;2023-01-31T04:06:33;13.23;;;2.83;;
12593;SDS011;6362;50.208;9.182;2023-01-31T04:08:59;19.65;;;4.35;;
12593;SDS011;6362;50.208;9.182;2023-01-31T04:11:25;15.10;;;2.83;;
12593;SDS011;6362;50.208;9.182;2023-01-31T04:13:51;12.50;;;2.40;;
12593;SDS011;6362;50.208;9.182;2023-01-31T04:16:17;13.38;;;3.40;;
12593;SDS011;6362;50.208;9.182;2023-01-31T04:18:43;17.95;;;3.88;;
12593;SDS011;6362;50.208;9.182;2023-01-31T04:21:08;15.60;;;3.17;;
12593;SDS011;6362;50.208;9.182;2023-01-31T04:23:34;21.17;;;3.60;;
12593;SDS011;6362;50.208;9.182;2023-01-31T04:26:00;13.40;;;3.40;;
12593;SDS011;6362;50.208;9.182;2023-01-31T04:28:26;16.50;;;3.15;;
12593;SDS011;6362;50.208;9.182;2023-01-31T04:30:52;13.07;;;3.30;;
12593;SDS011;6362;50.208;9.182;2023-01-31T04:33:19;11.88;;;2.90;;
12593;SDS011;6362;50.208;9.182;2023-01-31T04:35:44;10.65;;;3.33;;
12593;SDS011;6362;50.208;9.182;2023-01-31T04:38:10;14.43;;;3.10;;
12593;SDS011;6362;50.208;9.182;2023-01-31T04:40:35;14.98;;;2.65;;
12593;SDS011;6362;50.208;9.182;2023-01-31T04:43:01;13.50;;;2.90;;
12593;SDS011;6362;50.208;9.182;2023-01-31T04:45:26;15.15;;;3.25;;
12593;SDS011;6362;50.208;9.182;2023-01-31T04:47:51;16.23;;;3.42;;
12593;SDS011;6362;50.208;9.182;2023-01-31T04:50:17;10.05;;;2.70;;
12593;SDS011;6362;50.208;9.182;2023-01-31T04:52:42;11.85;;;3.38;;
12593;SDS011;6362;50.208;9.182;2023-01-31T04:55:08;11.88;;;3.55;;
12593;SDS011;6362;50.208;9.182;2023-01-31T04:57:33;13.63;;;2.85;;
12593;SDS011;6362;50.208;9.182;2023-01-31T04:59:59;12.93;;;3.17;;
12593;SDS011;6362;50.208;9.182;2023-01-31T05:02:24;19.90;;;3.05;;
12593;SDS011;6362;50.208;9.182;2023-01-31T05:04:50;10.38;;;2.83;;
12593;SDS011;6362;50.208;9.182;2023-01-31T05:07:15;12.23;;;3.33;;
12593;SDS011;6362;50.208;9.182;2023-01-31T05:09:41;18.25;;;3.65;;
12593;SDS011;6362;50.208;9.182;2023-01-31T05:12:08;15.55;;;3.20;;
12593;SDS011;6362;50.208;9.182;2023-01-31T05:14:33;9.63;;;2.45;;
12593;SDS011;6362;50.208;9.182;2023-01-31T05:16:59;15.30;;;3.35;;
12593;SDS011;6362;50.208;9.182;2023-01-31T05:19:24;12.90;;;3.42;;
12593;SDS011;6362;50.208;9.182;2023-01-31T05:21:50;17.00;;;4.20;;
12593;SDS011;6362;50.208;9.182;2023-01-31T05:24:25;20.75;;;6.07;;
12593;SDS011;6362;50.208;9.182;2023-01-31T05:26:52;20.67;;;4.25;;
12593;SDS011;6362;50.208;9.182;2023-01-31T05:29:22;15.88;;;3.33;;
12593;SDS011;6362;50.208;9.182;2023-01-31T05:31:51;15.82;;;2.83;;
12593;SDS011;6362;50.208;9.182;2023-01-31T05:34:19;21.27;;;3.80;;
12593;SDS011;6362;50.208;9.182;2023-01-31T05:36:45;19.38;;;3.85;;
12593;SDS011;6362;50.208;9.182;2023-01-31T05:39:10;15.65;;;3.50;;
12593;SDS011;6362;50.208;9.182;2023-01-31T05:41:36;18.55;;;3.95;;
12593;SDS011;6362;50.208;9.182;2023-01-31T05:44:01;24.55;;;3.90;;
12593;SDS011;6362;50.208;9.182;2023-01-31T05:46:27;13.85;;;3.13;;
12593;SDS011;6362;50.208;9.182;2023-01-31T05:48:53;15.70;;;3.03;;
12593;SDS011;6362;50.208;9.182;2023-01-31T05:51:18;15.45;;;4.00;;
12593;SDS011;6362;50.208;9.182;2023-01-31T05:53:44;11.35;;;3.67;;
12593;SDS011;6362;50.208;9.182;2023-01-31T05:56:09;9.57;;;3.70;;
12593;SDS011;6362;50.208;9.182;2023-01-31T05:58:35;14.25;;;4.95;;
12593;SDS011;6362;50.208;9.182;2023-01-31T06:01:00;13.43;;;2.70;;
12593;SDS011;6362;50.208;9.182;2023-01-31T06:03:25;13.27;;;2.75;;
12593;SDS011;6362;50.208;9.182;2023-01-31T06:05:51;15.43;;;3.40;;
12593;SDS011;6362;50.208;9.182;2023-01-31T06:08:17;12.48;;;2.38;;
12593;SDS011;6362;50.208;9.182;2023-01-31T06:10:43;12.60;;;3.25;;
12593;SDS011;6362;50.208;9.182;2023-01-31T06:13:08;11.68;;;2.20;;
12593;SDS011;6362;50.208;9.182;2023-01-31T06:15:34;9.75;;;2.95;;
12593;SDS011;6362;50.208;9.182;2023-01-31T06:18:01;7.80;;;2.78;;
12593;SDS011;6362;50.208;9.182;2023-01-31T06:20:27;10.48;;;3.40;;
12593;SDS011;6362;50.208;9.182;2023-01-31T06:22:53;11.18;;;3.20;;
12593;SDS011;6362;50.208;9.182;2023-01-31T06:25:19;14.95;;;2.95;;
12593;SDS011;6362;50.208;9.182;2023-01-31T06:27:44;9.13;;;2.67;;
12593;SDS011;6362;50.208;9.182;2023-01-31T06:30:10;10.38;;;2.78;;
12593;SDS011;6362;50.208;9.182;2023-01-31T06:32:36;23.42;;;4.05;;
12593;SDS011;6362;50.208;9.182;2023-01-31T06:35:02;13.25;;;3.13;;
12593;SDS011;6362;50.208;9.182;2023-01-31T06:37:28;16.08;;;2.90;;
12593;SDS011;6362;50.208;9.182;2023-01-31T06:39:54;11.70;;;3.13;;
12593;SDS011;6362;50.208;9.182;2023-01-31T06:42:19;16.73;;;2.92;;
12593;SDS011;6362;50.208;9.182;2023-01-31T06:44:45;9.32;;;2.60;;
12593;SDS011;6362;50.208;9.182;2023-01-31T06:47:10;18.90;;;4.35;;
12593;SDS011;6362;50.208;9.182;2023-01-31T06:49:37;12.85;;;2.95;;
12593;SDS011;6362;50.208;9.182;2023-01-31T06:52:02;14.38;;;3.28;;
12593;SDS011;6362;50.208;9.182;2023-01-31T06:54:28;10.52;;;3.42;;
12593;SDS011;6362;50.208;9.182;2023-01-31T06:56:53;12.15;;;3.20;;
12593;SDS011;6362;50.208;9.182;2023-01-31T06:59:19;12.70;;;2.70;;
12593;SDS011;6362;50.208;9.182;2023-01-31T07:01:44;11.05;;;3.30;;
12593;SDS011;6362;50.208;9.182;2023-01-31T07:04:09;7.45;;;2.50;;
12593;SDS011;6362;50.208;9.182;2023-01-31T07:06:35;10.43;;;2.80;;
12593;SDS011;6362;50.208;9.182;2023-01-31T07:09:00;12.85;;;3.50;;
12593;SDS011;6362;50.208;9.182;2023-01-31T07:11:26;8.65;;;2.80;;
12593;SDS011;6362;50.208;9.182;2023-01-31T07:13:51;9.25;;;2.70;;
12593;SDS011;6362;50.208;9.182;2023-01-31T07:16:17;10.50;;;3.00;;
12593;SDS011;6362;50.208;9.182;2023-01-31T07:18:43;13.88;;;3.35;;
12593;SDS011;6362;50.208;9.182;2023-01-31T07:21:09;12.55;;;3.33;;
12593;SDS011;6362;50.208;9.182;2023-01-31T07:23:35;11.98;;;3.63;;
12593;SDS011;6362;50.208;9.182;2023-01-31T07:26:04;14.15;;;2.90;;
12593;SDS011;6362;50.208;9.182;2023-01-31T07:28:30;10.45;;;2.95;;
12593;SDS011;6362;50.208;9.182;2023-01-31T07:30:55;11.07;;;2.78;;
12593;SDS011;6362;50.208;9.182;2023-01-31T07:33:28;10.73;;;2.88;;
12593;SDS011;6362;50.208;9.182;2023-01-31T07:35:54;8.45;;;3.35;;
12593;SDS011;6362;50.208;9.182;2023-01-31T07:38:19;12.35;;;3.20;;
12593;SDS011;6362;50.208;9.182;2023-01-31T07:40:45;16.67;;;3.42;;
12593;SDS011;6362;50.208;9.182;2023-01-31T07:43:10;13.00;;;3.45;;
12593;SDS011;6362;50.208;9.182;2023-01-31T07:45:35;11.23;;;3.45;;
12593;SDS011;6362;50.208;9.182;2023-01-31T07:48:03;15.57;;;3.67;;
12593;SDS011;6362;50.208;9.182;2023-01-31T07:50:30;10.23;;;3.55;;
12593;SDS011;6362;50.208;9.182;2023-01-31T07:52:56;13.40;;;3.25;;
12593;SDS011;6362;50.208;9.182;2023-01-31T07:55:23;13.00;;;3.00;;
12593;SDS011;6362;50.208;9.182;2023-01-31T07:57:49;11.07;;;3.10;;
12593;SDS011;6362;50.208;9.182;2023-01-31T08:00:14;13.35;;;3.13;;
12593;SDS011;6362;50.208;9.182;2023-01-31T08:02:59;13.63;;;3.63;;
12593;SDS011;6362;50.208;9.182;2023-01-31T08:05:46;11.55;;;3.95;;
12593;SDS011;6362;50.208;9.182;2023-01-31T08:08:12;15.15;;;3.97;;
12593;SDS011;6362;50.208;9.182;2023-01-31T08:10:37;21.10;;;4.28;;
12593;SDS011;6362;50.208;9.182;2023-01-31T08:13:04;14.90;;;3.55;;
12593;SDS011;6362;50.208;9.182;2023-01-31T08:15:30;16.85;;;3.08;;
12593;SDS011;6362;50.208;9.182;2023-01-31T08:17:56;15.43;;;3.00;;
12593;SDS011;6362;50.208;9.182;2023-01-31T08:20:21;10.57;;;2.60;;
12593;SDS011;6362;50.208;9.182;2023-01-31T08:22:47;11.50;;;2.92;;
12593;SDS011;6362;50.208;9.182;2023-01-31T08:25:12;11.68;;;2.90;;
12593;SDS011;6362;50.208;9.182;2023-01-31T08:27:37;10.18;;;2.67;;
12593;SDS011;6362;50.208;9.182;2023-01-31T08:30:03;11.40;;;3.40;;
12593;SDS011;6362;50.208;9.182;2023-01-31T08:32:29;10.25;;;2.85;;
12593;SDS011;6362;50.208;9.182;2023-01-31T08:34:54;12.93;;;3.47;;
12593;SDS011;6362;50.208;9.182;2023-01-31T08:37:20;12.85;;;3.35;;
12593;SDS011;6362;50.208;9.182;2023-01-31T08:39:45;9.90;;;3.00;;
12593;SDS011;6362;50.208;9.182;2023-01-31T08:42:12;14.25;;;3.90;;
12593;SDS011;6362;50.208;9.182;2023-01-31T08:44:38;13.70;;;3.63;;
12593;SDS011;6362;50.208;9.182;2023-01-31T08:47:03;12.00;;;2.97;;
12593;SDS011;6362;50.208;9.182;2023-01-31T08:49:28;11.07;;;4.38;;
12593;SDS011;6362;50.208;9.182;2023-01-31T08:51:55;19.23;;;4.60;;
12593;SDS011;6362;50.208;9.182;2023-01-31T08:54:20;13.10;;;3.03;;
12593;SDS011;6362;50.208;9.182;2023-01-31T08:56:46;11.35;;;3.35;;
12593;SDS011;6362;50.208;9.182;2023-01-31T08:59:11;14.38;;;2.97;;
12593;SDS011;6362;50.208;9.182;2023-01-31T09:01:37;15.85;;;4.68;;
12593;SDS011;6362;50.208;9.182;2023-01-31T09:04:02;14.25;;;3.25;;
12593;SDS011;6362;50.208;9.182;2023-01-31T09:06:28;13.13;;;3.55;;
12593;SDS011;6362;50.208;9.182;2023-01-31T09:08:54;14.65;;;3.92;;
12593;SDS011;6362;50.208;9.182;2023-01-31T09:11:21;18.30;;;4.28;;
12593;SDS011;6362;50.208;9.182;2023-01-31T09:13:47;16.65;;;4.55;;
12593;SDS011;6362;50.208;9.182;2023-01-31T09:16:16;12.82;;;4.15;;
12593;SDS011;6362;50.208;9.182;2023-01-31T09:18:42;17.80;;;4.85;;
12593;SDS011;6362;50.208;9.182;2023-01-31T09:21:09;17.10;;;6.10;;
12593;SDS011;6362;50.208;9.182;2023-01-31T09:23:36;17.55;;;5.43;;
12593;SDS011;6362;50.208;9.182;2023-01-31T09:26:02;16.55;;;5.68;;
12593;SDS011;6362;50.208;9.182;2023-01-31T09:28:28;17.15;;;7.32;;
12593;SDS011;6362;50.208;9.182;2023-01-31T09:30:54;15.13;;;6.38;;
12593;SDS011;6362;50.208;9.182;2023-01-31T09:33:20;15.38;;;7.10;;
12593;SDS011;6362;50.208;9.182;2023-01-31T09:35:56;27.45;;;8.93;;
12593;SDS011;6362;50.208;9.182;2023-01-31T09:38:23;15.85;;;7.28;;
12593;SDS011;6362;50.208;9.182;2023-01-31T09:40:49;20.70;;;7.40;;
12593;SDS011;6362;50.208;9.182;2023-01-31T09:43:15;15.38;;;7.53;;
12593;SDS011;6362;50.208;9.182;2023-01-31T09:45:43;18.58;;;7.50;;
12593;SDS011;6362;50.208;9.182;2023-01-31T09:48:16;22.38;;;8.38;;
12593;SDS011;6362;50.208;9.182;2023-01-31T09:50:50;21.33;;;8.73;;
12593;SDS011;6362;50.208;9.182;2023-01-31T09:53:20;16.67;;;8.05;;
12593;SDS011;6362;50.208;9.182;2023-01-31T10:06:40;16.67;;;7.90;;
12593;SDS011;6362;50.208;9.182;2023-01-31T10:09:20;21.38;;;9.20;;
12593;SDS011;6362;50.208;9.182;2023-01-31T10:12:03;18.52;;;7.50;;
12593;SDS011;6362;50.208;9.182;2023-01-31T10:14:50;14.73;;;5.88;;
12593;SDS011;6362;50.208;9.182;2023-01-31T10:26:05;19.23;;;6.47;;
12593;SDS011;6362;50.208;9.182;2023-01-31T10:33:51;14.07;;;6.68;;
12593;SDS011;6362;50.208;9.182;2023-01-31T10:39:15;19.02;;;8.05;;
12593;SDS011;6362;50.208;9.182;2023-01-31T10:42:02;21.75;;;8.18;;
12593;SDS011;6362;50.208;9.182;2023-01-31T10:47:56;19.95;;;7.57;;
12593;SDS011;6362;50.208;9.182;2023-01-31T10:58:23;20.90;;;7.55;;
12593;SDS011;6362;50.208;9.182;2023-01-31T11:00:49;22.02;;;6.97;;
12593;SDS011;6362;50.208;9.182;2023-01-31T11:03:15;16.13;;;8.23;;
12593;SDS011;6362;50.208;9.182;2023-01-31T11:05:44;19.92;;;8.07;;
12593;SDS011;6362;50.208;9.182;2023-01-31T11:08:27;24.90;;;7.80;;
12593;SDS011;6362;50.208;9.182;2023-01-31T11:10:54;13.63;;;6.80;;
12593;SDS011;6362;50.208;9.182;2023-01-31T11:13:21;15.90;;;6.43;;
12593;SDS011;6362;50.208;9.182;2023-01-31T11:15:47;16.63;;;8.05;;
12593;SDS011;6362;50.208;9.182;2023-01-31T11:18:23;14.90;;;6.00;;
12593;SDS011;6362;50.208;9.182;2023-01-31T11:20:57;15.25;;;6.78;;
12593;SDS011;6362;50.208;9.182;2023-01-31T11:23:25;14.05;;;6.60;;
12593;SDS011;6362;50.208;9.182;2023-01-31T11:25:54;21.17;;;8.15;;
12593;SDS011;6362;50.208;9.182;2023-01-31T11:28:26;16.15;;;7.93;;
12593;SDS011;6362;50.208;9.182;2023-01-31T11:30:58;16.33;;;7.47;;
12593;SDS011;6362;50.208;9.182;2023-01-31T11:33:45;15.48;;;7.38;;
12593;SDS011;6362;50.208;9.182;2023-01-31T11:36:21;19.40;;;6.63;;
12593;SDS011;6362;50.208;9.182;2023-01-31T11:38:48;21.38;;;7.90;;
12593;SDS011;6362;50.208;9.182;2023-01-31T11:44:10;20.85;;;8.32;;
12593;SDS011;6362;50.208;9.182;2023-01-31T11:47:01;18.17;;;7.13;;
12593;SDS011;6362;50.208;9.182;2023-01-31T11:52:12;19.73;;;7.70;;
12593;SDS011;6362;50.208;9.182;2023-01-31T11:54:40;15.27;;;7.43;;
12593;SDS011;6362;50.208;9.182;2023-01-31T11:57:14;20.13;;;7.63;;
12593;SDS011;6362;50.208;9.182;2023-01-31T11:59:41;13.50;;;6.07;;
12593;SDS011;6362;50.208;9.182;2023-01-31T12:02:12;13.52;;;6.85;;
12593;SDS011;6362;50.208;9.182;2023-01-31T12:04:50;16.98;;;7.05;;
12593;SDS011;6362;50.208;9.182;2023-01-31T12:07:20;16.35;;;6.30;;
12593;SDS011;6362;50.208;9.182;2023-01-31T12:09:48;17.13;;;7.15;;
12593;SDS011;6362;50.208;9.182;2023-01-31T12:14:49;13.98;;;6.07;;
12593;SDS011;6362;50.208;9.182;2023-01-31T12:17:15;18.88;;;6.70;;
12593;SDS011;6362;50.208;9.182;2023-01-31T12:22:30;14.35;;;6.70;;
12593;SDS011;6362;50.208;9.182;2023-01-31T12:27:48;16.65;;;5.80;;
12593;SDS011;6362;50.208;9.182;2023-01-31T12:33:24;14.95;;;6.78;;
12593;SDS011;6362;50.208;9.182;2023-01-31T12:36:05;15.90;;;5.77;;
12593;SDS011;6362;50.208;9.182;2023-01-31T12:44:03;13.80;;;5.77;;
12593;SDS011;6362;50.208;9.182;2023-01-31T12:46:48;16.63;;;6.65;;
12593;SDS011;6362;50.208;9.182;2023-01-31T12:57:43;12.50;;;4.70;;
12593;SDS011;6362;50.208;9.182;2023-01-31T13:03:35;8.13;;;3.83;;
12593;SDS011;6362;50.208;9.182;2023-01-31T13:06:06;12.85;;;4.15;;
12593;SDS011;6362;50.208;9.182;2023-01-31T13:08:33;18.40;;;5.32;;
12593;SDS011;6362;50.208;9.182;2023-01-31T13:11:06;9.95;;;4.78;;
12593;SDS011;6362;50.208;9.182;2023-01-31T13:13:43;17.98;;;5.30;;
12593;SDS011;6362;50.208;9.182;2023-01-31T13:16:20;12.95;;;4.90;;
12593;SDS011;6362;50.208;9.182;2023-01-31T13:18:50;10.18;;;5.22;;
12593;SDS011;6362;50.208;9.182;2023-01-31T13:21:22;15.15;;;5.25;;
12593;SDS011;6362;50.208;9.182;2023-01-31T13:23:52;12.13;;;5.20;;
12593;SDS011;6362;50.208;9.182;2023-01-31T13:26:27;14.13;;;5.75;;
12593;SDS011;6362;50.208;9.182;2023-01-31T13:29:05;15.43;;;5.80;;
12593;SDS011;6362;50.208;9.182;2023-01-31T13:31:39;15.18;;;5.13;;
12593;SDS011;6362;50.208;9.182;2023-01-31T13:34:34;18.05;;;6.10;;
12593;SDS011;6362;50.208;9.182;2023-01-31T13:37:10;20.05;;;5.80;;
12593;SDS011;6362;50.208;9.182;2023-01-31T13:39:39;13.15;;;5.30;;
12593;SDS011;6362;50.208;9.182;2023-01-31T13:42:14;16.02;;;5.97;;
12593;SDS011;6362;50.208;9.182;2023-01-31T13:44:40;16.48;;;6.50;;
12593;SDS011;6362;50.208;9.182;2023-01-31T13:47:14;13.93;;;5.72;;
12593;SDS011;6362;50.208;9.182;2023-01-31T13:52:31;18.08;;;7.00;;
12593;SDS011;6362;50.208;9.182;2023-01-31T13:55:00;23.25;;;8.80;;
12593;SDS011;6362;50.208;9.182;2023-01-31T13:57:39;18.13;;;6.60;;
12593;SDS011;6362;50.208;9.182;2023-01-31T14:00:35;15.38;;;6.15;;
12593;SDS011;6362;50.208;9.182;2023-01-31T14:03:12;18.52;;;7.97;;
12593;SDS011;6362;50.208;9.182;2023-01-31T14:10:52;17.20;;;7.20;;
12593;SDS011;6362;50.208;9.182;2023-01-31T14:15:59;16.10;;;6.97;;
12593;SDS011;6362;50.208;9.182;2023-01-31T14:18:36;19.23;;;8.73;;
12593;SDS011;6362;50.208;9.182;2023-01-31T14:29:13;18.52;;;7.55;;
12593;SDS011;6362;50.208;9.182;2023-01-31T14:31:39;22.58;;;7.93;;
12593;SDS011;6362;50.208;9.182;2023-01-31T14:34:15;16.55;;;6.78;;
12593;SDS011;6362;50.208;9.182;2023-01-31T14:44:45;15.73;;;6.82;;
12593;SDS011;6362;50.208;9.182;2023-01-31T14:58:22;17.00;;;7.30;;
12593;SDS011;6362;50.208;9.182;2023-01-31T15:01:01;21.70;;;9.25;;
12593;SDS011;6362;50.208;9.182;2023-01-31T15:03:30;20.20;;;8.32;;
12593;SDS011;6362;50.208;9.182;2023-01-31T15:06:07;21.17;;;8.60;;
12593;SDS011;6362;50.208;9.182;2023-01-31T15:08:41;24.55;;;8.77;;
12593;SDS011;6362;50.208;9.182;2023-01-31T15:13:39;14.38;;;7.57;;
12593;SDS011;6362;50.208;9.182;2023-01-31T15:16:18;18.90;;;8.07;;
12593;SDS011;6362;50.208;9.182;2023-01-31T15:18:45;17.88;;;9.05;;
12593;SDS011;6362;50.208;9.182;2023-01-31T15:21:17;18.50;;;8.73;;
12593;SDS011;6362;50.208;9.182;2023-01-31T15:23:47;17.90;;;8.40;;
12593;SDS011;6362;50.208;9.182;2023-01-31T15:26:13;15.43;;;7.85;;
12593;SDS011;6362;50.208;9.182;2023-01-31T15:28:42;22.65;;;8.93;;
12593;SDS011;6362;50.208;9.182;2023-01-31T15:31:20;17.42;;;8.35;;
12593;SDS011;6362;50.208;9.182;2023-01-31T15:33:50;17.13;;;7.90;;
12593;SDS011;6362;50.208;9.182;2023-01-31T15:38:57;20.58;;;8.07;;
12593;SDS011;6362;50.208;9.182;2023-01-31T15:44:16;16.08;;;9.20;;
12593;SDS011;6362;50.208;9.182;2023-01-31T15:46:47;22.27;;;8.70;;
12593;SDS011;6362;50.208;9.182;2023-01-31T15:49:21;18.40;;;8.10;;
12593;SDS011;6362;50.208;9.182;2023-01-31T15:54:31;18.67;;;8.50;;
12593;SDS011;6362;50.208;9.182;2023-01-31T15:56:57;19.42;;;8.40;;
12593;SDS011;6362;50.208;9.182;2023-01-31T15:59:23;17.20;;;8.85;;
12593;SDS011;6362;50.208;9.182;2023-01-31T16:01:52;23.58;;;13.68;;
12593;SDS011;6362;50.208;9.182;2023-01-31T16:04:22;19.27;;;10.52;;
12593;SDS011;6362;50.208;9.182;2023-01-31T16:06:48;21.13;;;9.27;;
12593;SDS011;6362;50.208;9.182;2023-01-31T16:12:10;15.52;;;8.18;;
12593;SDS011;6362;50.208;9.182;2023-01-31T16:14:37;19.55;;;8.95;;
12593;SDS011;6362;50.208;9.182;2023-01-31T16:17:03;20.88;;;8.57;;
12593;SDS011;6362;50.208;9.182;2023-01-31T16:19:30;20.00;;;8.52;;
12593;SDS011;6362;50.208;9.182;2023-01-31T16:21:58;16.00;;;8.35;;
12593;SDS011;6362;50.208;9.182;2023-01-31T16:24:24;15.20;;;7.78;;
12593;SDS011;6362;50.208;9.182;2023-01-31T16:29:16;16.42;;;8.93;;
12593;SDS011;6362;50.208;9.182;2023-01-31T16:31:46;14.77;;;8.82;;
12593;SDS011;6362;50.208;9.182;2023-01-31T16:34:21;23.25;;;8.27;;
12593;SDS011;6362;50.208;9.182;2023-01-31T16:36:59;17.80;;;8.32;;
12593;SDS011;6362;50.208;9.182;2023-01-31T16:42:07;22.08;;;8.27;;
12593;SDS011;6362;50.208;9.182;2023-01-31T16:44:46;18.80;;;8.93;;
12593;SDS011;6362;50.208;9.182;2023-01-31T16:47:29;18.52;;;8.98;;
12593;SDS011;6362;50.208;9.182;2023-01-31T16:52:42;18.63;;;7.78;;
12593;SDS011;6362;50.208;9.182;2023-01-31T16:55:18;16.25;;;7.93;;
12593;SDS011;6362;50.208;9.182;2023-01-31T16:57:45;16.65;;;7.90;;
12593;SDS011;6362;50.208;9.182;2023-01-31T17:00:32;13.60;;;7.93;;
12593;SDS011;6362;50.208;9.182;2023-01-31T17:02:58;12.68;;;6.97;;
12593;SDS011;6362;50.208;9.182;2023-01-31T17:07:53;15.70;;;7.60;;
12593;SDS011;6362;50.208;9.182;2023-01-31T17:10:20;12.52;;;7.15;;
12593;SDS011;6362;50.208;9.182;2023-01-31T17:12:47;19.85;;;8.50;;
12593;SDS011;6362;50.208;9.182;2023-01-31T17:15:17;17.40;;;8.32;;
12593;SDS011;6362;50.208;9.182;2023-01-31T17:17:43;19.77;;;7.43;;
12593;SDS011;6362;50.208;9.182;2023-01-31T17:20:13;11.85;;;6.65;;
12593;SDS011;6362;50.208;9.182;2023-01-31T17:22:41;17.30;;;6.97;;
12593;SDS011;6362;50.208;9.182;2023-01-31T17:25:26;18.77;;;8.00;;
12593;SDS011;6362;50.208;9.182;2023-01-31T17:27:56;12.90;;;7.05;;
12593;SDS011;6362;50.208;9.182;2023-01-31T17:30:21;24.48;;;8.05;;
12593;SDS011;6362;50.208;9.182;2023-01-31T17:32:46;16.90;;;7.55;;
12593;SDS011;6362;50.208;9.182;2023-01-31T17:35:14;18.92;;;7.88;;
12593;SDS011;6362;50.208;9.182;2023-01-31T17:37:42;12.65;;;7.78;;
12593;SDS011;6362;50.208;9.182;2023-01-31T17:40:08;16.88;;;7.18;;
12593;SDS011;6362;50.208;9.182;2023-01-31T17:42:34;20.55;;;8.95;;
12593;SDS011;6362;50.208;9.182;2023-01-31T17:45:00;18.52;;;7.90;;
12593;SDS011;6362;50.208;9.182;2023-01-31T17:47:26;15.60;;;7.20;;
12593;SDS011;6362;50.208;9.182;2023-01-31T17:49:51;17.35;;;8.68;;
12593;SDS011;6362;50.208;9.182;2023-01-31T17:52:18;16.75;;;7.97;;
12593;SDS011;6362;50.208;9.182;2023-01-31T17:54:43;16.55;;;7.45;;